Dripping Springs' Hourly Summary for Monday, March 13, 2017
Hour Temp
(f)
RH
(%)
Solar Rad.
(MJ/m2)
Rainfall
(in)
Wind
(mph)
3/13/2017 12:00 AM 45 100 0 0 4.13
3/13/2017 1:00 AM 45 100 0 0 3.53
3/13/2017 2:00 AM 45 100 0 0 1.93
3/13/2017 3:00 AM 46 100 0 0 2.82
3/13/2017 4:00 AM 46 100 0 0 2.95
3/13/2017 5:00 AM 46 100 0 0 3.16
3/13/2017 6:00 AM 46 100 0 0 3.34
3/13/2017 7:00 AM 46 100 0 0.01 3.36
3/13/2017 8:00 AM 46 100 0 0 3.87
3/13/2017 9:00 AM 47 100 0.07 0 3.85
3/13/2017 10:00 AM 47 100 0.32 0 2.52
3/13/2017 11:00 AM 48 100 0.41 0 6.25
3/13/2017 12:00 PM 50 100 1.55 0 6.98
3/13/2017 1:00 PM 55 93 2.2 0 8.22
3/13/2017 2:00 PM 59 68 2.98 0 8.28
3/13/2017 3:00 PM 62 56 2.95 0 7.78
3/13/2017 4:00 PM 64 54 2.48 0 8.59
3/13/2017 5:00 PM 64 51 2.06 0 8.55
3/13/2017 6:00 PM 65 49 1.07 0 6.91
3/13/2017 7:00 PM 65 46 0.62 0 5.64
3/13/2017 8:00 PM 63 48 0.12 0 2.67
3/13/2017 9:00 PM 57 62 0 0 2.16
3/13/2017 10:00 PM 54 68 0 0 0.96
3/13/2017 11:00 PM 48 99 0 0 0.12
Data Summary 52 83 16.83 0.01 4.52